Time;durP1;ratioP1;P1;durP2;ratioP2;P2;SDS_P1;SDS_P2;PMS_P1;PMS_P2;Temp;Humidity;BMP_temperature;BMP_pressure;BME280_temperature;BME280_humidity;BME280_pressure;Samples;Min_cycle;Max_cycle;Signal;HPM_P1;HPM_P2
2022/07/29 00:00:37;;;;;;;3.50;1.20;;;17.50;84.10;;;;;;4989295;28;20477;-75
2022/07/29 00:03:03;;;;;;;6.78;1.70;;;17.50;84.10;;;;;;4990499;28;20121;-74
2022/07/29 00:05:30;;;;;;;7.95;1.55;;;17.50;83.90;;;;;;4984661;28;20049;-72
2022/07/29 00:07:57;;;;;;;4.80;2.03;;;17.40;83.80;;;;;;4987493;28;20052;-75
2022/07/29 00:10:23;;;;;;;8.18;3.05;;;17.40;83.90;;;;;;4985630;28;20030;-75
2022/07/29 00:12:50;;;;;;;2.17;1.27;;;17.40;83.80;;;;;;4981763;28;20027;-75
2022/07/29 00:15:16;;;;;;;3.60;1.27;;;17.30;83.80;;;;;;4983779;28;20039;-73
2022/07/29 00:17:43;;;;;;;8.88;1.45;;;17.30;83.80;;;;;;4982389;28;20058;-75
2022/07/29 00:20:09;;;;;;;2.78;1.10;;;17.30;83.90;;;;;;4989192;28;20173;-74
2022/07/29 00:22:39;;;;;;;6.82;1.67;;;17.30;83.90;;;;;;4990789;28;20064;-75
2022/07/29 00:25:07;;;;;;;3.75;1.30;;;17.30;84.10;;;;;;4983488;28;20469;-73
2022/07/29 00:27:35;;;;;;;4.85;2.22;;;17.30;84.20;;;;;;4987079;28;20484;-76
2022/07/29 00:30:01;;;;;;;3.60;1.38;;;17.30;84.30;;;;;;4986734;28;20014;-73
2022/07/29 00:32:28;;;;;;;4.22;2.25;;;17.30;84.40;;;;;;4986219;28;20032;-75
2022/07/29 00:37:39;;;;;;;7.90;1.23;;;17.30;84.50;;;;;;4983770;28;20029;-75
2022/07/29 00:40:06;;;;;;;18.23;2.28;;;17.30;84.40;;;;;;4984884;28;20489;-76
2022/07/29 00:42:43;;;;;;;20.05;2.50;;;17.30;84.20;;;;;;4978123;28;20018;-72
2022/07/29 00:45:10;;;;;;;4.78;1.10;;;17.30;84.60;;;;;;4987618;28;20031;-73
2022/07/29 00:47:36;;;;;;;13.02;2.00;;;17.30;84.70;;;;;;4984303;28;20045;-73
2022/07/29 00:50:05;;;;;;;5.30;1.00;;;17.30;84.90;;;;;;4983055;28;20046;-73
2022/07/29 00:52:32;;;;;;;3.38;1.23;;;17.30;85.10;;;;;;4984073;28;20543;-74
2022/07/29 00:54:59;;;;;;;9.93;2.13;;;17.20;85.10;;;;;;4980812;28;20034;-73
2022/07/29 00:57:25;;;;;;;3.17;1.15;;;17.20;85.30;;;;;;4983283;28;20073;-73
2022/07/29 00:59:52;;;;;;;4.68;1.23;;;17.20;85.40;;;;;;4985716;28;20050;-75
2022/07/29 01:02:18;;;;;;;11.30;1.48;;;17.20;85.60;;;;;;4991717;28;20497;-76
2022/07/29 01:04:45;;;;;;;3.35;1.50;;;17.20;86.30;;;;;;4983559;28;20014;-73
2022/07/29 01:07:11;;;;;;;3.50;1.83;;;17.20;85.70;;;;;;4987421;28;20035;-75
2022/07/29 01:09:39;;;;;;;6.20;1.95;;;17.20;85.70;;;;;;4988804;28;20105;-76
2022/07/29 01:12:06;;;;;;;2.58;1.30;;;17.20;85.60;;;;;;4984825;28;20034;-72
2022/07/29 01:14:32;;;;;;;3.17;1.75;;;17.20;85.50;;;;;;4984708;28;20026;-74
2022/07/29 01:17:11;;;;;;;2.55;1.30;;;17.20;85.40;;;;;;4981837;28;20050;-76
2022/07/29 01:19:53;;;;;;;7.05;1.00;;;17.20;85.30;;;;;;4989346;28;20030;-73
2022/07/29 01:22:26;;;;;;;2.40;1.17;;;17.20;85.20;;;;;;4987619;28;20031;-74
2022/07/29 01:25:20;;;;;;;2.22;1.15;;;17.20;85.20;;;;;;5000259;28;20047;-74
2022/07/29 01:27:56;;;;;;;3.25;0.90;;;17.10;85.10;;;;;;4986900;28;20112;-73
2022/07/29 01:30:25;;;;;;;4.13;1.23;;;17.10;85.10;;;;;;4980488;28;20061;-74
2022/07/29 01:32:58;;;;;;;1.90;1.00;;;17.10;85.00;;;;;;4983024;28;20472;-72
2022/07/29 01:35:45;;;;;;;3.45;0.93;;;17.10;84.90;;;;;;4983839;28;20018;-74
2022/07/29 01:38:20;;;;;;;6.93;1.52;;;17.10;84.70;;;;;;4985487;28;20034;-74
2022/07/29 01:41:08;;;;;;;4.43;1.20;;;17.10;84.60;;;;;;4978094;28;20026;-73
2022/07/29 01:43:47;;;;;;;6.10;1.85;;;17.10;84.50;;;;;;4983048;28;20041;-74
2022/07/29 01:46:31;;;;;;;3.95;1.55;;;17.10;84.40;;;;;;4985401;28;20014;-75
2022/07/29 01:49:14;;;;;;;5.47;1.67;;;17.00;84.30;;;;;;4986049;28;20026;-76
2022/07/29 01:51:52;;;;;;;7.13;2.25;;;17.00;84.40;;;;;;4985420;28;20072;-74
2022/07/29 01:54:34;;;;;;;12.45;3.72;;;17.00;84.40;;;;;;4983201;28;20023;-73
2022/07/29 01:57:02;;;;;;;10.82;2.30;;;17.10;84.70;;;;;;4979232;28;20402;-75
2022/07/29 01:59:30;;;;;;;10.35;2.05;;;17.00;84.60;;;;;;4985085;28;20045;-76
2022/07/29 02:01:58;;;;;;;9.50;1.70;;;17.00;84.40;;;;;;4982112;28;20023;-76
2022/07/29 02:04:27;;;;;;;3.08;1.92;;;17.00;84.20;;;;;;4982814;28;20034;-75
2022/07/29 02:06:58;;;;;;;4.50;1.45;;;17.00;84.00;;;;;;4983328;28;20489;-74
2022/07/29 02:09:26;;;;;;;3.28;1.58;;;17.00;84.10;;;;;;4980299;28;20053;-75
2022/07/29 02:11:55;;;;;;;3.85;1.30;;;17.00;84.00;;;;;;4986196;28;20110;-73
2022/07/29 02:14:23;;;;;;;4.90;1.80;;;17.00;84.00;;;;;;4982610;28;20042;-75
2022/07/29 02:16:53;;;;;;;5.70;2.00;;;17.00;84.00;;;;;;4994531;28;20033;-75
2022/07/29 02:19:23;;;;;;;2.72;1.52;;;16.90;83.80;;;;;;4980014;28;20046;-75
2022/07/29 02:21:53;;;;;;;1.85;1.65;;;17.00;83.90;;;;;;4984257;28;20069;-75
2022/07/29 02:24:21;;;;;;;4.07;1.60;;;16.90;83.80;;;;;;4984703;28;20389;-75
2022/07/29 02:26:49;;;;;;;4.28;1.67;;;17.00;84.10;;;;;;4983006;28;20050;-74
2022/07/29 02:29:17;;;;;;;4.35;1.65;;;16.90;84.10;;;;;;4984093;28;20026;-74
2022/07/29 02:31:47;;;;;;;6.85;1.90;;;16.90;84.10;;;;;;4982496;28;20019;-74
2022/07/29 02:34:14;;;;;;;6.93;1.65;;;16.90;84.20;;;;;;4981903;28;20018;-74
2022/07/29 02:36:42;;;;;;;10.27;2.47;;;16.90;84.50;;;;;;4981495;28;20069;-74
2022/07/29 02:39:11;;;;;;;8.38;1.80;;;16.90;84.50;;;;;;4984352;28;20062;-77
2022/07/29 02:41:55;;;;;;;5.65;1.80;;;16.90;84.60;;;;;;4986670;28;20029;-74
2022/07/29 02:44:24;;;;;;;5.57;1.73;;;16.90;84.60;;;;;;4985302;28;20026;-75
2022/07/29 02:47:13;;;;;;;6.13;1.65;;;16.90;84.60;;;;;;4984098;28;20507;-76
2022/07/29 02:50:08;;;;;;;6.10;2.25;;;16.90;84.40;;;;;;4987162;28;20425;-76
2022/07/29 02:52:40;;;;;;;7.78;1.95;;;16.90;84.60;;;;;;4979919;28;20122;-74
2022/07/29 02:55:39;;;;;;;13.02;3.63;;;16.90;84.70;;;;;;4986641;28;20548;-72
2022/07/29 02:58:14;;;;;;;9.27;3.25;;;16.90;85.00;;;;;;4983918;28;20038;-72
2022/07/29 03:00:42;;;;;;;12.15;2.67;;;16.90;85.40;;;;;;4989590;28;20546;-77
2022/07/29 03:03:13;;;;;;;7.47;2.40;;;17.00;85.70;;;;;;4982996;28;20869;-74
2022/07/29 03:05:40;;;;;;;9.70;2.72;;;16.90;85.50;;;;;;4976944;28;20085;-73
2022/07/29 03:08:10;;;;;;;8.57;2.60;;;16.90;85.20;;;;;;4982875;28;20022;-72
2022/07/29 03:10:43;;;;;;;5.53;2.00;;;16.90;85.30;;;;;;4982170;28;20038;-73
2022/07/29 03:13:12;;;;;;;8.43;2.45;;;16.80;85.20;;;;;;4983383;28;20022;-76
2022/07/29 03:15:39;;;;;;;3.65;1.17;;;16.80;85.10;;;;;;4981871;28;20019;-75
2022/07/29 03:18:08;;;;;;;10.45;2.78;;;16.80;84.80;;;;;;4981499;28;20022;-72
2022/07/29 03:20:34;;;;;;;4.50;1.17;;;16.70;84.70;;;;;;4980959;28;20469;-78
2022/07/29 03:23:01;;;;;;;3.80;1.58;;;16.70;84.60;;;;;;4998817;28;20103;-74
2022/07/29 03:25:27;;;;;;;6.30;1.15;;;16.70;84.60;;;;;;4985036;28;20027;-72
2022/07/29 03:27:54;;;;;;;3.97;1.52;;;16.70;84.60;;;;;;4988217;28;20019;-77
2022/07/29 03:30:20;;;;;;;5.40;1.33;;;16.70;84.50;;;;;;4982697;28;20808;-73
2022/07/29 03:32:47;;;;;;;7.95;2.25;;;16.70;84.50;;;;;;4984032;28;20030;-74
2022/07/29 03:35:13;;;;;;;11.70;2.47;;;16.70;84.60;;;;;;4985609;28;20065;-75
2022/07/29 03:37:40;;;;;;;5.20;1.77;;;16.70;84.80;;;;;;4987909;28;20073;-73
2022/07/29 03:40:09;;;;;;;6.00;1.65;;;16.70;84.90;;;;;;4982402;28;20034;-75
2022/07/29 03:42:39;;;;;;;5.53;2.10;;;16.70;85.00;;;;;;4986119;28;20018;-75
2022/07/29 03:45:13;;;;;;;4.00;2.03;;;16.70;85.10;;;;;;4983899;28;20089;-75
2022/07/29 03:47:44;;;;;;;7.38;2.08;;;16.70;85.20;;;;;;4986314;28;20023;-73
2022/07/29 03:50:14;;;;;;;8.02;2.45;;;16.70;85.00;;;;;;4987633;28;20026;-73
2022/07/29 03:52:41;;;;;;;5.63;2.10;;;16.70;84.90;;;;;;4985143;28;20046;-73
2022/07/29 03:55:08;;;;;;;4.53;1.80;;;16.70;85.00;;;;;;4985084;28;20023;-74
2022/07/29 03:57:36;;;;;;;9.27;1.85;;;16.70;84.80;;;;;;4990998;28;20026;-74
2022/07/29 04:00:05;;;;;;;8.32;2.05;;;16.60;84.70;;;;;;4985038;28;20046;-74
2022/07/29 04:02:33;;;;;;;6.22;2.50;;;16.60;84.80;;;;;;4983955;28;20022;-73
2022/07/29 04:04:59;;;;;;;8.88;2.88;;;16.60;84.70;;;;;;4984855;28;20023;-75
2022/07/29 04:07:26;;;;;;;3.42;1.67;;;16.60;84.80;;;;;;4981073;28;20043;-76
2022/07/29 04:09:52;;;;;;;5.68;1.55;;;16.50;84.80;;;;;;4989423;28;20061;-76
2022/07/29 04:12:23;;;;;;;9.93;2.78;;;16.50;85.40;;;;;;4984092;28;20046;-73
2022/07/29 04:14:50;;;;;;;87.25;66.10;;;16.60;86.00;;;;;;4981881;28;20041;-73
2022/07/29 04:17:16;;;;;;;48.22;37.17;;;16.60;85.90;;;;;;4981777;28;20077;-75
2022/07/29 04:19:43;;;;;;;20.52;14.48;;;16.60;86.20;;;;;;4986230;28;20048;-74
2022/07/29 04:22:09;;;;;;;10.90;7.40;;;16.60;86.40;;;;;;4981935;28;20030;-75
2022/07/29 04:24:36;;;;;;;12.00;5.20;;;16.60;86.70;;;;;;4986482;28;20033;-77
2022/07/29 04:27:02;;;;;;;17.55;4.63;;;16.60;86.80;;;;;;4987433;28;20029;-72
2022/07/29 04:29:29;;;;;;;12.65;4.13;;;16.60;86.90;;;;;;4988917;28;20511;-77
2022/07/29 04:31:55;;;;;;;9.63;3.28;;;16.60;86.90;;;;;;4988420;28;20643;-79
2022/07/29 04:34:22;;;;;;;11.63;3.30;;;16.50;86.80;;;;;;4978390;28;20030;-79
2022/07/29 04:36:48;;;;;;;6.10;2.83;;;16.60;86.90;;;;;;4980686;28;20034;-75
2022/07/29 04:39:15;;;;;;;9.25;2.67;;;16.60;86.90;;;;;;4979014;28;20030;-71
2022/07/29 04:41:41;;;;;;;9.55;2.85;;;16.60;86.90;;;;;;4990117;28;20019;-78
2022/07/29 04:44:07;;;;;;;14.95;4.03;;;16.60;86.90;;;;;;4984586;28;20501;-73
2022/07/29 04:46:35;;;;;;;7.13;2.40;;;16.60;86.90;;;;;;4982473;28;20027;-74
2022/07/29 04:49:02;;;;;;;19.55;3.67;;;16.50;86.70;;;;;;4976328;28;20050;-71
2022/07/29 04:51:29;;;;;;;12.98;3.00;;;16.60;86.90;;;;;;4976953;28;20029;-73
2022/07/29 04:53:55;;;;;;;17.38;3.20;;;16.60;87.10;;;;;;4983549;28;20065;-70
2022/07/29 04:56:22;;;;;;;16.48;2.92;;;16.60;87.10;;;;;;4983138;28;20045;-71
2022/07/29 04:58:48;;;;;;;18.75;3.58;;;16.60;86.80;;;;;;4982266;28;20073;-69
2022/07/29 05:01:15;;;;;;;17.27;3.38;;;16.60;87.10;;;;;;4983850;28;20105;-68
2022/07/29 05:03:41;;;;;;;24.67;3.33;;;16.60;87.30;;;;;;4983949;28;20022;-70
2022/07/29 05:06:08;;;;;;;10.05;1.90;;;16.60;87.30;;;;;;4980408;28;20121;-71
2022/07/29 05:08:34;;;;;;;9.43;2.05;;;16.60;87.10;;;;;;4980672;28;20085;-71
2022/07/29 05:11:01;;;;;;;5.32;2.30;;;16.60;86.90;;;;;;4983041;28;20042;-72
2022/07/29 05:13:27;;;;;;;7.30;1.60;;;16.60;86.80;;;;;;4984293;28;20053;-72
2022/07/29 05:15:55;;;;;;;10.77;1.92;;;16.50;86.70;;;;;;4983066;28;20041;-70
2022/07/29 05:18:21;;;;;;;7.38;2.75;;;16.50;86.60;;;;;;4984640;28;20026;-74
2022/07/29 05:20:48;;;;;;;8.27;2.05;;;16.50;86.70;;;;;;4982281;28;20022;-75
2022/07/29 05:23:15;;;;;;;13.75;2.55;;;16.50;86.80;;;;;;4982501;28;20037;-73
2022/07/29 05:25:42;;;;;;;7.63;3.00;;;16.50;86.90;;;;;;4981870;28;20019;-75
2022/07/29 05:28:08;;;;;;;3.38;1.38;;;16.50;86.90;;;;;;4981897;28;20042;-71
2022/07/29 05:30:35;;;;;;;9.50;3.60;;;16.50;86.70;;;;;;4982370;28;20485;-74
2022/07/29 05:33:01;;;;;;;5.68;1.48;;;16.50;86.70;;;;;;4981190;28;20057;-71
2022/07/29 05:35:28;;;;;;;5.70;1.70;;;16.50;86.60;;;;;;4982791;28;20094;-74
2022/07/29 05:37:54;;;;;;;8.32;2.40;;;16.50;86.60;;;;;;4985414;28;20034;-74
2022/07/29 05:40:21;;;;;;;8.30;1.90;;;16.50;86.60;;;;;;4979455;28;20096;-73
2022/07/29 05:42:47;;;;;;;4.68;1.98;;;16.50;86.50;;;;;;4983875;28;20497;-70
2022/07/29 05:45:14;;;;;;;8.13;2.28;;;16.50;86.60;;;;;;4978256;28;20022;-71
2022/07/29 05:47:40;;;;;;;6.47;1.92;;;16.50;86.80;;;;;;4979284;28;20516;-72
2022/07/29 05:50:07;;;;;;;10.38;2.53;;;16.50;87.60;;;;;;4981298;28;20428;-70
2022/07/29 05:52:34;;;;;;;8.30;2.53;;;16.60;87.10;;;;;;4978702;28;20018;-72
2022/07/29 05:55:04;;;;;;;7.13;2.47;;;16.60;87.10;;;;;;4980499;28;20026;-72
2022/07/29 05:57:30;;;;;;;6.00;2.00;;;16.60;87.10;;;;;;4978657;28;20049;-75
2022/07/29 05:59:57;;;;;;;9.40;2.80;;;16.50;87.10;;;;;;4984688;28;20497;-74
2022/07/29 06:02:24;;;;;;;5.45;1.58;;;16.60;87.10;;;;;;4983110;28;20453;-75
2022/07/29 06:04:50;;;;;;;5.22;2.58;;;16.60;87.00;;;;;;4986930;28;20018;-73
2022/07/29 06:07:17;;;;;;;3.15;2.13;;;16.60;87.00;;;;;;4981869;28;20046;-70
2022/07/29 06:09:43;;;;;;;10.80;3.72;;;16.50;87.10;;;;;;4980878;28;20038;-74
2022/07/29 06:12:10;;;;;;;4.72;1.90;;;16.50;87.10;;;;;;4975903;28;20478;-70
2022/07/29 06:14:37;;;;;;;7.68;3.55;;;16.50;87.30;;;;;;4985688;28;20484;-70
2022/07/29 06:17:05;;;;;;;9.75;2.17;;;16.50;87.40;;;;;;4982946;28;20034;-71
2022/07/29 06:19:34;;;;;;;8.43;4.03;;;16.50;87.70;;;;;;4983153;28;20038;-72
2022/07/29 06:22:00;;;;;;;10.90;3.63;;;16.50;88.10;;;;;;4982890;28;20018;-70
2022/07/29 06:24:27;;;;;;;8.30;2.25;;;16.60;88.70;;;;;;4978089;28;20022;-72
2022/07/29 06:26:53;;;;;;;6.85;3.13;;;16.60;88.90;;;;;;4982824;28;20035;-71
2022/07/29 06:29:20;;;;;;;6.78;1.85;;;16.60;89.20;;;;;;4982219;28;20101;-70
2022/07/29 06:31:46;;;;;;;9.70;2.72;;;16.60;89.50;;;;;;4982156;28;20019;-70
2022/07/29 06:34:13;;;;;;;4.28;2.20;;;16.60;89.70;;;;;;4982938;28;20116;-69
2022/07/29 06:36:39;;;;;;;6.43;2.60;;;16.60;89.90;;;;;;4978832;28;20022;-70
2022/07/29 06:39:07;;;;;;;12.70;2.90;;;16.70;90.10;;;;;;4983300;28;20041;-70
2022/07/29 06:41:34;;;;;;;8.07;2.35;;;16.70;90.30;;;;;;4983734;28;20037;-71
2022/07/29 06:44:02;;;;;;;5.63;2.58;;;16.70;90.40;;;;;;4980646;28;20401;-70
2022/07/29 06:46:29;;;;;;;6.95;2.42;;;16.60;90.60;;;;;;4984692;28;20043;-71
2022/07/29 06:48:55;;;;;;;4.70;2.55;;;16.60;90.70;;;;;;4986503;28;20027;-71
2022/07/29 06:51:22;;;;;;;11.95;2.45;;;16.60;90.80;;;;;;4982218;28;20037;-71
2022/07/29 06:53:49;;;;;;;7.60;1.80;;;16.60;90.70;;;;;;4986445;28;20030;-71
2022/07/29 06:56:15;;;;;;;12.13;1.73;;;16.60;90.60;;;;;;4987502;28;20031;-69
2022/07/29 06:58:42;;;;;;;8.02;2.53;;;16.50;90.40;;;;;;4982753;28;20034;-69
2022/07/29 07:01:08;;;;;;;5.35;1.33;;;16.50;90.40;;;;;;4987212;28;20030;-69
2022/07/29 07:03:35;;;;;;;9.65;2.58;;;16.50;90.50;;;;;;4985349;28;20023;-70
2022/07/29 07:06:01;;;;;;;9.10;2.33;;;16.50;90.80;;;;;;4987953;28;20520;-72
2022/07/29 07:08:28;;;;;;;9.93;2.17;;;16.50;91.20;;;;;;4985060;28;20030;-69
2022/07/29 07:10:55;;;;;;;8.95;2.00;;;16.50;91.40;;;;;;4981601;28;20032;-70
2022/07/29 07:13:21;;;;;;;5.80;1.98;;;16.50;91.90;;;;;;4986035;28;20105;-70
2022/07/29 07:15:48;;;;;;;10.98;2.25;;;16.40;91.60;;;;;;4981777;28;20536;-69
2022/07/29 07:18:16;;;;;;;5.93;1.80;;;16.40;91.60;;;;;;4982865;28;20034;-70
2022/07/29 07:20:42;;;;;;;5.38;2.47;;;16.40;91.60;;;;;;4980186;28;20090;-70
2022/07/29 07:23:09;;;;;;;7.97;2.90;;;16.40;91.60;;;;;;4988910;28;20026;-70
2022/07/29 07:25:35;;;;;;;6.13;2.40;;;16.40;91.60;;;;;;4985247;28;20086;-69
2022/07/29 07:28:03;;;;;;;4.43;2.13;;;16.40;91.60;;;;;;4984279;28;20027;-68
2022/07/29 07:30:29;;;;;;;8.30;2.28;;;16.40;91.60;;;;;;4987632;28;20022;-70
2022/07/29 07:32:56;;;;;;;9.40;2.10;;;16.40;91.60;;;;;;4985844;28;20041;-69
2022/07/29 07:35:22;;;;;;;5.93;2.15;;;16.40;91.60;;;;;;4981288;28;20031;-71
2022/07/29 07:37:49;;;;;;;14.23;1.70;;;16.40;91.70;;;;;;4982406;28;20561;-72
2022/07/29 07:40:15;;;;;;;10.23;2.15;;;16.40;91.70;;;;;;4985810;28;20035;-72
2022/07/29 07:42:42;;;;;;;6.80;1.90;;;16.40;91.70;;;;;;4984367;28;20026;-69
2022/07/29 07:45:09;;;;;;;5.72;1.80;;;16.50;91.70;;;;;;4985820;28;20037;-70
2022/07/29 07:47:37;;;;;;;7.35;2.03;;;16.50;91.80;;;;;;4982589;28;20018;-69
2022/07/29 07:50:06;;;;;;;6.65;1.58;;;16.50;91.80;;;;;;4982187;28;20429;-69
2022/07/29 07:52:33;;;;;;;12.93;3.75;;;16.50;91.80;;;;;;4985849;28;20407;-69
2022/07/29 07:55:00;;;;;;;12.88;2.88;;;16.50;91.80;;;;;;4984541;28;20049;-70
2022/07/29 07:57:27;;;;;;;10.15;2.47;;;16.50;91.80;;;;;;4987215;28;20073;-70
2022/07/29 07:59:53;;;;;;;8.65;2.30;;;16.50;91.90;;;;;;4984487;28;20046;-71
2022/07/29 08:02:20;;;;;;;6.13;2.25;;;16.50;91.90;;;;;;4983806;28;20033;-71
2022/07/29 08:04:46;;;;;;;8.88;2.28;;;16.50;91.90;;;;;;4986176;28;20039;-70
2022/07/29 08:07:14;;;;;;;7.20;2.53;;;16.50;91.90;;;;;;4980176;28;20042;-70
2022/07/29 08:09:41;;;;;;;5.47;1.20;;;16.50;91.90;;;;;;4985956;28;20050;-70
2022/07/29 08:12:07;;;;;;;5.30;1.77;;;16.50;92.00;;;;;;4980880;28;20486;-71
2022/07/29 08:14:34;;;;;;;9.15;2.67;;;16.60;92.10;;;;;;4986179;28;20027;-72
2022/07/29 08:17:00;;;;;;;9.75;2.05;;;16.50;92.10;;;;;;4983591;28;20091;-72
2022/07/29 08:19:27;;;;;;;4.82;1.77;;;16.60;92.20;;;;;;4980820;28;20034;-69
2022/07/29 08:21:54;;;;;;;4.55;1.77;;;16.60;92.50;;;;;;4982014;28;20110;-69
2022/07/29 08:27:06;;;;;;;;;;;16.50;92.20;;;;;;4985371;28;20046;-73
2022/07/29 08:29:33;;;;;;;6.25;1.77;;;16.60;92.20;;;;;;4982579;28;20560;-72
2022/07/29 08:31:59;;;;;;;9.85;1.88;;;16.60;92.20;;;;;;4984428;28;20058;-70
2022/07/29 08:34:26;;;;;;;5.95;2.55;;;16.60;92.20;;;;;;4985537;28;20097;-71
2022/07/29 08:36:53;;;;;;;4.50;1.90;;;16.60;92.20;;;;;;4985561;28;20033;-69
2022/07/29 08:39:19;;;;;;;7.35;2.22;;;16.60;92.20;;;;;;4980338;28;20085;-69
2022/07/29 08:41:47;;;;;;;9.88;2.45;;;16.60;92.10;;;;;;4982637;28;20014;-69
2022/07/29 08:44:23;;;;;;;8.25;2.63;;;16.50;92.10;;;;;;4986853;28;20030;-70
2022/07/29 08:46:50;;;;;;;9.20;2.35;;;16.60;92.10;;;;;;4980247;28;20023;-70
2022/07/29 08:49:17;;;;;;;13.00;3.78;;;16.60;92.10;;;;;;4984827;28;20397;-70
2022/07/29 08:51:44;;;;;;;7.13;2.53;;;16.60;92.10;;;;;;4985795;28;20393;-70
2022/07/29 08:54:13;;;;;;;12.70;3.17;;;16.70;92.10;;;;;;4983525;28;20070;-72
2022/07/29 08:56:40;;;;;;;12.73;2.60;;;16.60;92.00;;;;;;4983267;28;20037;-74
2022/07/29 08:59:08;;;;;;;8.68;2.83;;;16.70;92.00;;;;;;4983556;28;20034;-70
2022/07/29 09:01:39;;;;;;;13.13;3.47;;;16.70;92.00;;;;;;4983122;28;20022;-72
2022/07/29 09:04:10;;;;;;;11.43;3.00;;;16.70;92.00;;;;;;4981127;28;20125;-69
2022/07/29 09:06:40;;;;;;;12.23;2.78;;;16.70;91.90;;;;;;4980918;28;20047;-70
2022/07/29 09:09:09;;;;;;;8.55;3.60;;;16.70;91.90;;;;;;4985428;28;20405;-70
2022/07/29 09:11:35;;;;;;;9.15;2.80;;;16.70;91.90;;;;;;4982139;28;20022;-72
2022/07/29 09:14:02;;;;;;;7.80;2.92;;;16.70;91.90;;;;;;4986413;28;20041;-70
2022/07/29 09:16:49;;;;;;;4.90;2.47;;;16.70;91.80;;;;;;4982146;28;20018;-71
2022/07/29 09:19:33;;;;;;;10.23;2.53;;;16.70;91.80;;;;;;4975228;28;20057;-72
2022/07/29 09:22:01;;;;;;;8.15;2.25;;;16.80;91.90;;;;;;4981872;28;20197;-72
2022/07/29 09:24:39;;;;;;;7.72;2.55;;;16.80;91.90;;;;;;4983010;28;20023;-72
2022/07/29 09:27:12;;;;;;;10.10;1.85;;;16.80;91.90;;;;;;4982896;28;20522;-71
2022/07/29 09:29:39;;;;;;;8.80;2.10;;;16.80;92.00;;;;;;4977786;28;20401;-71
2022/07/29 09:32:13;;;;;;;9.73;2.40;;;16.80;92.00;;;;;;4984859;28;20421;-70
2022/07/29 09:34:39;;;;;;;13.18;2.83;;;16.80;92.00;;;;;;4982342;28;20023;-70
2022/07/29 09:37:06;;;;;;;4.75;2.35;;;16.90;92.10;;;;;;4983103;28;20451;-69
2022/07/29 09:39:48;;;;;;;9.70;3.08;;;16.90;92.10;;;;;;4979231;28;20039;-71
2022/07/29 09:42:28;;;;;;;12.65;3.03;;;16.90;92.00;;;;;;4981773;28;20046;-71
2022/07/29 09:44:55;;;;;;;9.63;3.97;;;16.90;92.00;;;;;;4988667;28;20057;-69
2022/07/29 09:47:25;;;;;;;8.23;2.60;;;16.90;92.00;;;;;;4982427;28;20052;-71
2022/07/29 09:49:57;;;;;;;9.50;1.95;;;16.90;92.10;;;;;;4981374;28;20418;-71
2022/07/29 09:52:25;;;;;;;12.40;4.22;;;16.90;92.10;;;;;;4981590;28;20069;-69
2022/07/29 09:54:53;;;;;;;11.65;4.20;;;16.90;92.10;;;;;;4984906;28;20018;-71
2022/07/29 09:57:28;;;;;;;11.52;2.33;;;16.90;92.20;;;;;;4984282;28;20425;-73
2022/07/29 09:59:57;;;;;;;7.90;3.00;;;17.00;92.40;;;;;;4978976;28;20043;-70
2022/07/29 10:02:29;;;;;;;9.02;2.83;;;16.90;92.60;;;;;;4980526;28;20069;-71
2022/07/29 10:04:56;;;;;;;9.98;3.38;;;17.00;92.50;;;;;;4983988;28;20033;-70
2022/07/29 10:07:22;;;;;;;9.68;3.85;;;17.00;92.50;;;;;;4980786;28;20498;-70
2022/07/29 10:09:57;;;;;;;15.20;4.07;;;17.00;92.50;;;;;;4986409;28;20077;-72
2022/07/29 10:12:24;;;;;;;11.40;3.28;;;16.90;92.40;;;;;;4982338;28;20032;-69
2022/07/29 10:14:51;;;;;;;8.43;2.97;;;17.00;92.30;;;;;;4980815;28;20027;-75
2022/07/29 10:17:19;;;;;;;10.05;3.20;;;17.00;92.30;;;;;;4981813;28;20505;-73
2022/07/29 10:19:46;;;;;;;10.93;2.60;;;17.00;92.30;;;;;;4988339;28;20076;-75
2022/07/29 10:22:12;;;;;;;9.18;2.70;;;17.00;92.20;;;;;;4984158;28;20030;-72
2022/07/29 10:24:39;;;;;;;11.85;3.28;;;17.00;92.10;;;;;;4987064;28;20031;-69
2022/07/29 10:27:08;;;;;;;11.48;3.40;;;17.00;92.00;;;;;;4985042;28;20168;-70
2022/07/29 10:29:35;;;;;;;12.77;2.67;;;17.00;91.90;;;;;;4986783;28;20022;-73
2022/07/29 10:32:05;;;;;;;10.38;3.67;;;17.00;91.90;;;;;;4984870;28;20429;-74
2022/07/29 10:34:56;;;;;;;11.20;3.80;;;17.00;91.70;;;;;;4984763;28;20031;-71
2022/07/29 10:37:31;;;;;;;24.63;4.05;;;17.00;91.60;;;;;;4987489;28;20054;-72
2022/07/29 10:43:29;;;;;;;15.33;4.83;;;17.10;91.40;;;;;;4984769;28;20053;-75
2022/07/29 10:45:58;;;;;;;14.00;3.50;;;17.20;91.30;;;;;;4989096;28;20026;-70
2022/07/29 10:48:25;;;;;;;17.45;3.28;;;17.30;91.20;;;;;;4983238;28;20507;-75
2022/07/29 10:50:58;;;;;;;13.40;2.65;;;17.40;91.00;;;;;;4985791;28;20035;-72
2022/07/29 10:53:45;;;;;;;12.25;3.35;;;17.40;90.70;;;;;;4985809;28;20393;-73
2022/07/29 10:56:32;;;;;;;10.82;2.90;;;17.50;90.10;;;;;;4987771;28;20077;-71
2022/07/29 10:59:20;;;;;;;17.48;3.22;;;17.60;89.10;;;;;;4984262;28;20849;-73
2022/07/29 11:01:49;;;;;;;12.27;2.38;;;17.70;88.00;;;;;;4987322;28;20030;-73
2022/07/29 11:04:16;;;;;;;11.13;3.75;;;17.70;86.70;;;;;;4982633;28;20496;-73
2022/07/29 11:07:04;;;;;;;17.27;4.10;;;17.80;86.20;;;;;;4983623;28;20050;-73
2022/07/29 11:09:31;;;;;;;16.13;3.25;;;17.90;85.20;;;;;;4989420;28;20022;-74
2022/07/29 11:11:58;;;;;;;9.93;3.45;;;18.00;85.20;;;;;;4985619;28;20373;-73
2022/07/29 11:14:52;;;;;;;13.80;3.53;;;18.00;84.70;;;;;;4984325;28;20424;-73
2022/07/29 11:17:18;;;;;;;13.38;2.97;;;18.10;84.10;;;;;;4986080;28;20030;-73
2022/07/29 11:19:45;;;;;;;12.27;3.45;;;18.10;83.50;;;;;;4983667;28;20547;-72
2022/07/29 11:22:30;;;;;;;12.70;3.38;;;18.10;82.90;;;;;;4986227;28;20022;-74
2022/07/29 11:25:15;;;;;;;;;;;18.10;82.40;;;;;;4985454;28;20026;-74
2022/07/29 11:27:43;;;;;;;15.50;3.30;;;18.10;81.80;;;;;;4983221;28;19916;-75
2022/07/29 11:30:11;;;;;;;11.82;2.38;;;18.10;81.50;;;;;;4982404;28;20018;-73
2022/07/29 11:32:40;;;;;;;9.95;3.13;;;18.10;81.20;;;;;;4983880;28;20113;-72
2022/07/29 11:35:22;;;;;;;9.75;2.35;;;18.10;80.90;;;;;;4984735;28;20110;-75
2022/07/29 11:38:23;;;;;;;9.40;2.65;;;18.20;80.40;;;;;;4984586;28;20113;-71
2022/07/29 11:41:23;;;;;;;15.90;3.63;;;18.20;80.10;;;;;;4983160;28;20041;-74
2022/07/29 11:43:55;;;;;;;14.68;3.42;;;18.20;79.50;;;;;;4989278;28;20081;-73
2022/07/29 11:46:45;;;;;;;14.40;4.03;;;18.20;79.20;;;;;;4982190;28;20069;-74
2022/07/29 11:49:12;;;;;;;21.15;4.53;;;18.30;79.20;;;;;;4987108;28;20038;-71
2022/07/29 11:51:40;;;;;;;10.00;2.90;;;18.30;78.70;;;;;;4985673;28;20014;-72
2022/07/29 11:54:12;;;;;;;11.98;2.38;;;18.40;78.90;;;;;;4984903;28;20031;-74
2022/07/29 11:56:43;;;;;;;10.45;2.85;;;18.40;78.30;;;;;;4982220;28;20481;-73
2022/07/29 11:59:10;;;;;;;6.47;2.10;;;18.40;78.00;;;;;;4983385;28;20113;-73
2022/07/29 12:01:37;;;;;;;10.63;2.45;;;18.50;77.50;;;;;;4985186;28;20031;-73
2022/07/29 12:04:07;;;;;;;10.45;2.75;;;18.50;77.00;;;;;;4983658;28;20385;-71
2022/07/29 12:06:34;;;;;;;6.82;2.13;;;18.50;76.60;;;;;;4981698;28;20502;-74
2022/07/29 12:09:07;;;;;;;8.30;3.17;;;18.60;76.10;;;;;;4986582;28;20449;-72
2022/07/29 12:11:33;;;;;;;18.42;2.35;;;18.50;75.60;;;;;;4988697;28;20753;-75
2022/07/29 12:14:00;;;;;;;14.52;2.60;;;18.60;75.30;;;;;;4982298;28;20027;-74
2022/07/29 12:16:36;;;;;;;11.88;2.38;;;18.70;75.50;;;;;;4983081;28;20023;-76
2022/07/29 12:19:04;;;;;;;8.30;1.73;;;18.70;75.40;;;;;;4983089;28;20501;-76
2022/07/29 12:21:50;;;;;;;18.00;2.95;;;18.70;75.00;;;;;;4985030;28;20018;-78
2022/07/29 12:24:18;;;;;;;8.25;3.00;;;18.70;74.70;;;;;;4979095;28;20061;-73
2022/07/29 12:26:56;;;;;;;9.98;2.83;;;18.70;74.10;;;;;;4982611;28;20027;-78
2022/07/29 12:29:23;;;;;;;19.15;2.70;;;18.70;73.30;;;;;;4985331;28;20041;-78
2022/07/29 12:31:54;;;;;;;4.90;1.27;;;18.70;72.60;;;;;;4981268;28;20062;-71
2022/07/29 12:34:23;;;;;;;4.78;1.10;;;18.70;72.30;;;;;;4984847;28;20097;-78
2022/07/29 12:36:50;;;;;;;9.52;1.98;;;18.70;72.00;;;;;;4983154;28;20038;-76
2022/07/29 12:39:17;;;;;;;6.25;1.50;;;18.80;72.00;;;;;;4985527;28;20036;-76
2022/07/29 12:41:44;;;;;;;6.90;2.25;;;18.80;71.50;;;;;;4983392;28;20114;-75
2022/07/29 12:44:11;;;;;;;14.75;1.83;;;18.80;71.40;;;;;;4983209;28;20038;-71
2022/07/29 12:46:37;;;;;;;12.25;1.90;;;18.80;71.40;;;;;;4984004;28;20023;-75
2022/07/29 12:49:04;;;;;;;11.63;2.72;;;18.80;71.60;;;;;;4980809;28;20066;-80
2022/07/29 12:51:36;;;;;;;10.82;3.58;;;18.80;72.20;;;;;;4980879;28;20470;-77
2022/07/29 12:54:14;;;;;;;7.22;2.60;;;18.90;72.20;;;;;;4983666;28;20022;-71
2022/07/29 12:56:42;;;;;;;11.32;2.50;;;18.90;72.10;;;;;;4982010;28;20021;-78
2022/07/29 12:59:27;;;;;;;10.60;2.00;;;18.90;72.30;;;;;;4980800;28;20129;-80
2022/07/29 13:01:54;;;;;;;17.52;2.83;;;18.90;73.50;;;;;;4978567;28;20026;-69
2022/07/29 13:04:32;;;;;;;12.48;2.65;;;19.00;72.60;;;;;;4983624;28;20034;-73